createdAt,value
2023-01-07T00:01:22.656Z,35.80
2023-01-07T00:03:51.329Z,32.80
2023-01-07T00:06:24.945Z,33.20
2023-01-07T00:08:54.407Z,33.10
2023-01-07T00:11:24.724Z,35.10
2023-01-07T00:13:54.523Z,35.90
2023-01-07T00:16:24.026Z,36.10
2023-01-07T00:18:52.854Z,34.90
2023-01-07T00:21:21.844Z,37.60
2023-01-07T00:23:53.248Z,36.60
2023-01-07T00:26:22.907Z,38.50
2023-01-07T00:28:51.797Z,37.30
2023-01-07T00:31:21.893Z,38.80
2023-01-07T00:33:59.666Z,39.80
2023-01-07T00:36:36.112Z,37.60
2023-01-07T00:39:05.736Z,38.90
2023-01-07T00:41:33.881Z,37.90
2023-01-07T00:44:01.681Z,36.20
2023-01-07T00:46:29.899Z,37.30
2023-01-07T00:48:57.785Z,36.00
2023-01-07T00:51:25.526Z,37.40
2023-01-07T00:53:53.216Z,39.30
2023-01-07T00:56:21.193Z,37.40
2023-01-07T00:58:49.343Z,38.40
2023-01-07T01:01:18.001Z,37.60
2023-01-07T01:03:46.303Z,36.10
2023-01-07T01:06:15.779Z,35.80
2023-01-07T01:08:44.936Z,34.70
2023-01-07T01:11:15.380Z,36.80
2023-01-07T01:13:44.017Z,36.60
2023-01-07T01:16:14.949Z,35.30
2023-01-07T01:18:43.766Z,35.10
2023-01-07T01:21:13.932Z,36.30
2023-01-07T01:23:42.662Z,34.40
2023-01-07T01:26:14.049Z,33.50
2023-01-07T01:28:42.241Z,33.50
2023-01-07T01:31:11.212Z,32.60
2023-01-07T01:33:48.107Z,37.80
2023-01-07T01:36:15.978Z,33.60
2023-01-07T01:38:43.758Z,32.20
2023-01-07T01:41:13.880Z,32.30
2023-01-07T01:43:43.035Z,35.20
2023-01-07T01:46:32.152Z,32.80
2023-01-07T01:49:05.079Z,31.60
2023-01-07T01:51:37.486Z,32.60
2023-01-07T01:54:07.394Z,31.70
2023-01-07T01:56:38.859Z,34.70
2023-01-07T01:59:10.823Z,32.60
2023-01-07T02:01:39.083Z,35.10
2023-01-07T02:04:13.682Z,35.20
2023-01-07T02:07:12.057Z,38.70
2023-01-07T02:09:43.117Z,34.00
2023-01-07T02:12:24.349Z,37.00
2023-01-07T02:15:08.910Z,37.10
2023-01-07T02:17:57.917Z,38.30
2023-01-07T02:21:01.517Z,41.30
2023-01-07T02:23:45.552Z,39.10
2023-01-07T02:26:52.780Z,32.30
2023-01-07T02:29:42.424Z,36.20
2023-01-07T02:32:45.558Z,36.80
2023-01-07T02:35:24.937Z,39.70
2023-01-07T02:38:08.237Z,42.30
2023-01-07T02:41:13.516Z,43.50
2023-01-07T02:43:53.036Z,45.10
2023-01-07T02:46:52.757Z,45.60
2023-01-07T02:49:21.778Z,47.60
2023-01-07T02:51:49.565Z,51.70
2023-01-07T02:54:22.592Z,54.90
2023-01-07T02:57:20.562Z,54.70
2023-01-07T02:59:54.335Z,50.80
2023-01-07T03:02:47.090Z,54.70
2023-01-07T03:05:33.884Z,59.70
2023-01-07T03:08:13.352Z,62.60
2023-01-07T03:10:46.527Z,58.90
2023-01-07T03:13:20.110Z,64.70
2023-01-07T03:15:53.511Z,62.30
2023-01-07T03:18:34.587Z,66.90
2023-01-07T03:21:06.171Z,67.40
2023-01-07T03:23:36.384Z,68.30
2023-01-07T03:26:06.193Z,72.10
2023-01-07T03:28:40.543Z,73.50
2023-01-07T03:31:14.038Z,79.00
2023-01-07T03:33:51.678Z,76.90
2023-01-07T03:36:23.253Z,78.90
2023-01-07T03:38:52.451Z,77.30
2023-01-07T03:41:39.987Z,74.00
2023-01-07T03:44:08.107Z,75.00
2023-01-07T03:46:36.705Z,74.10
2023-01-07T03:49:05.217Z,68.10
2023-01-07T03:51:33.646Z,68.40
2023-01-07T03:54:01.438Z,71.00
2023-01-07T03:56:29.353Z,69.40
2023-01-07T03:58:57.007Z,64.50
2023-01-07T04:01:24.784Z,65.20
2023-01-07T04:03:53.248Z,64.20
2023-01-07T04:06:21.028Z,70.30
2023-01-07T04:08:48.934Z,75.00
2023-01-07T04:11:16.740Z,80.10
2023-01-07T04:13:44.490Z,82.00
2023-01-07T04:16:12.367Z,83.20
2023-01-07T04:18:40.125Z,82.50
2023-01-07T04:21:07.832Z,85.40
2023-01-07T04:23:35.603Z,91.80
2023-01-07T04:26:03.382Z,90.70
2023-01-07T04:28:31.344Z,91.20
2023-01-07T04:30:59.839Z,96.00
2023-01-07T04:33:28.299Z,98.70
2023-01-07T04:35:57.910Z,101.30
2023-01-07T04:38:26.726Z,104.80
2023-01-07T04:40:55.012Z,111.60
2023-01-07T04:43:22.671Z,109.00
2023-01-07T04:45:50.374Z,120.60
2023-01-07T04:48:18.833Z,109.40
2023-01-07T04:50:48.275Z,112.10
2023-01-07T04:53:16.147Z,105.40
2023-01-07T04:55:46.282Z,113.10
2023-01-07T04:58:14.693Z,114.40
2023-01-07T05:00:42.527Z,122.90
2023-01-07T05:03:11.630Z,114.30
2023-01-07T05:05:39.354Z,109.70
2023-01-07T05:08:07.072Z,111.40
2023-01-07T05:10:35.932Z,110.80
2023-01-07T05:13:07.013Z,114.10
2023-01-07T05:15:35.387Z,117.60
2023-01-07T05:18:03.989Z,104.90
2023-01-07T05:20:31.671Z,106.30
2023-01-07T05:22:59.724Z,107.60
2023-01-07T05:25:27.533Z,114.40
2023-01-07T05:27:55.704Z,110.30
2023-01-07T05:30:24.144Z,116.60
2023-01-07T05:32:51.853Z,114.80
2023-01-07T05:35:19.686Z,108.30
2023-01-07T05:37:47.398Z,119.00
2023-01-07T05:40:15.152Z,124.40
2023-01-07T05:42:43.733Z,130.40
2023-01-07T05:45:11.933Z,123.10
2023-01-07T05:47:39.621Z,131.60
2023-01-07T05:50:07.613Z,132.20
2023-01-07T05:52:35.310Z,135.90
2023-01-07T05:55:03.242Z,132.40
2023-01-07T05:57:30.913Z,138.20
2023-01-07T05:59:58.603Z,140.90
2023-01-07T06:02:26.245Z,146.50
2023-01-07T06:04:54.048Z,148.50
2023-01-07T06:07:21.734Z,145.50
2023-01-07T06:09:49.391Z,148.50
2023-01-07T06:12:17.041Z,146.50
2023-01-07T06:14:44.711Z,148.30
2023-01-07T06:17:12.394Z,144.90
2023-01-07T06:19:40.528Z,152.10
2023-01-07T06:22:08.217Z,143.80
2023-01-07T06:24:36.157Z,145.30
2023-01-07T06:27:03.897Z,151.60
2023-01-07T06:29:31.899Z,151.40
2023-01-07T06:31:59.557Z,140.30
2023-01-07T06:34:27.238Z,145.80
2023-01-07T06:36:54.968Z,132.40
2023-01-07T06:39:22.634Z,138.40
2023-01-07T06:41:50.445Z,135.20
2023-01-07T06:44:18.190Z,122.80
2023-01-07T06:46:45.857Z,130.60
2023-01-07T06:49:13.783Z,141.80
2023-01-07T06:51:41.442Z,145.00
2023-01-07T06:54:09.136Z,143.30
2023-01-07T06:56:36.856Z,143.40
2023-01-07T06:59:04.515Z,144.60
2023-01-07T07:01:32.324Z,156.30
2023-01-07T07:04:00.149Z,150.80
2023-01-07T07:06:27.840Z,134.40
2023-01-07T07:08:55.485Z,132.00
2023-01-07T07:11:23.132Z,137.30
2023-01-07T07:13:50.762Z,146.30
2023-01-07T07:16:18.459Z,166.00
2023-01-07T07:18:46.168Z,154.80
2023-01-07T07:21:13.816Z,149.50
2023-01-07T07:23:41.460Z,171.20
2023-01-07T07:26:10.157Z,142.20
2023-01-07T07:28:37.910Z,124.40
2023-01-07T07:31:05.635Z,139.60
2023-01-07T07:33:33.332Z,132.60
2023-01-07T07:36:00.998Z,129.10
2023-01-07T07:38:28.760Z,115.40
2023-01-07T07:40:56.897Z,113.70
2023-01-07T07:43:24.551Z,119.10
2023-01-07T07:45:53.064Z,114.90
2023-01-07T07:48:20.861Z,154.90
2023-01-07T07:50:51.625Z,149.20
2023-01-07T07:53:20.004Z,127.10
2023-01-07T07:55:47.691Z,137.70
2023-01-07T07:58:15.415Z,152.90
2023-01-07T08:00:43.137Z,148.60
2023-01-07T08:03:11.472Z,144.30
2023-01-07T08:05:41.227Z,161.00
2023-01-07T08:08:11.442Z,157.30
2023-01-07T08:10:39.693Z,163.40
2023-01-07T08:13:07.401Z,176.80
2023-01-07T08:15:35.339Z,163.70
2023-01-07T08:18:05.971Z,132.80
2023-01-07T08:20:35.604Z,145.40
2023-01-07T08:23:04.719Z,134.20
2023-01-07T08:25:33.294Z,142.30
2023-01-07T08:28:01.539Z,142.90
2023-01-07T08:30:29.798Z,128.70
2023-01-07T08:32:58.370Z,131.00
2023-01-07T08:35:26.194Z,122.90
2023-01-07T08:38:01.400Z,127.30
2023-01-07T08:40:29.073Z,121.50
2023-01-07T08:43:00.988Z,123.80
2023-01-07T08:45:29.425Z,130.50
2023-01-07T08:48:00.631Z,131.30
2023-01-07T08:50:30.209Z,133.80
2023-01-07T08:52:58.383Z,145.40
2023-01-07T08:55:26.102Z,136.80
2023-01-07T08:57:53.965Z,127.40
2023-01-07T09:00:22.061Z,118.60
2023-01-07T09:02:49.830Z,109.10
2023-01-07T09:05:17.977Z,121.00
2023-01-07T09:07:45.647Z,134.50
2023-01-07T09:10:13.379Z,106.90
2023-01-07T09:12:41.017Z,110.10
2023-01-07T09:15:09.534Z,103.20
2023-01-07T09:17:37.351Z,91.00
2023-01-07T09:20:06.915Z,96.10
2023-01-07T09:22:36.622Z,92.00
2023-01-07T09:25:05.618Z,101.20
2023-01-07T09:27:34.114Z,100.50
2023-01-07T09:30:02.073Z,95.90
2023-01-07T09:32:30.163Z,101.20
2023-01-07T09:34:57.956Z,88.30
2023-01-07T09:37:25.591Z,84.30
2023-01-07T09:39:53.241Z,86.20
2023-01-07T09:42:56.635Z,96.00
2023-01-07T09:45:31.106Z,83.10
2023-01-07T09:48:01.251Z,93.80
2023-01-07T09:51:05.304Z,66.70
2023-01-07T09:53:37.919Z,59.60
2023-01-07T09:56:12.877Z,68.70
2023-01-07T09:58:45.383Z,75.10
2023-01-07T10:01:35.613Z,65.00
2023-01-07T10:04:27.934Z,70.70
2023-01-07T10:07:20.516Z,65.00
2023-01-07T10:09:54.073Z,64.50
2023-01-07T10:12:39.738Z,53.60
2023-01-07T10:15:29.019Z,51.40
2023-01-07T10:18:15.238Z,59.90
2023-01-07T10:20:51.322Z,61.20
2023-01-07T10:23:26.109Z,61.60
2023-01-07T10:25:56.185Z,56.30
2023-01-07T10:28:41.811Z,54.10
2023-01-07T10:31:21.760Z,54.90
2023-01-07T10:33:52.360Z,55.60
2023-01-07T10:36:27.069Z,47.90
2023-01-07T10:39:17.341Z,46.50
2023-01-07T10:42:10.262Z,52.20
2023-01-07T10:45:04.543Z,52.10
2023-01-07T10:47:51.381Z,56.80
2023-01-07T10:50:19.117Z,53.20
2023-01-07T10:53:27.516Z,58.50
2023-01-07T10:56:19.209Z,62.40
2023-01-07T10:58:48.350Z,62.80
2023-01-07T11:01:32.216Z,66.80
2023-01-07T11:04:01.127Z,62.90
2023-01-07T11:06:49.472Z,71.90
2023-01-07T11:09:20.868Z,65.90
2023-01-07T11:11:50.074Z,61.90
2023-01-07T11:14:43.957Z,60.10
2023-01-07T11:17:25.918Z,53.30
2023-01-07T11:19:53.667Z,51.30
2023-01-07T11:22:27.539Z,47.50
2023-01-07T11:24:56.618Z,51.60
2023-01-07T11:27:26.453Z,49.80
2023-01-07T11:30:07.575Z,48.20
2023-01-07T11:32:40.326Z,52.00
2023-01-07T11:35:20.665Z,49.10
2023-01-07T11:37:50.749Z,47.40
2023-01-07T11:40:23.518Z,49.20
2023-01-07T11:42:55.545Z,45.00
2023-01-07T11:45:28.333Z,44.00
2023-01-07T11:48:01.154Z,42.20
2023-01-07T11:50:30.300Z,41.20
2023-01-07T11:53:00.950Z,42.30
2023-01-07T11:55:29.735Z,41.80
2023-01-07T11:58:28.861Z,41.60
2023-01-07T12:00:45.840Z,42.00
2023-01-07T12:03:14.158Z,43.60
2023-01-07T12:05:45.070Z,43.40
2023-01-07T12:08:20.762Z,42.50
2023-01-07T12:10:55.126Z,43.50
2023-01-07T12:13:26.061Z,43.80
2023-01-07T12:16:11.980Z,42.30
2023-01-07T12:18:49.511Z,42.70
2023-01-07T12:21:35.803Z,43.80
2023-01-07T12:24:37.714Z,43.10
2023-01-07T12:27:25.957Z,42.80
2023-01-07T12:29:59.461Z,44.00
2023-01-07T12:32:40.150Z,43.00
2023-01-07T12:35:27.381Z,45.00
2023-01-07T12:38:16.876Z,43.30
2023-01-07T12:40:51.123Z,42.70
2023-01-07T12:43:30.448Z,40.70
2023-01-07T12:46:00.910Z,40.50
2023-01-07T12:48:38.141Z,37.80
2023-01-07T12:51:15.148Z,37.00
2023-01-07T12:54:00.240Z,37.20
2023-01-07T12:56:35.779Z,36.90
2023-01-07T12:59:46.200Z,35.70
2023-01-07T13:02:14.357Z,34.60
2023-01-07T13:04:53.435Z,34.50
2023-01-07T13:07:46.528Z,33.40
2023-01-07T13:10:17.402Z,32.40
2023-01-07T13:12:47.544Z,33.50
2023-01-07T13:15:27.329Z,35.50
2023-01-07T13:17:57.542Z,32.80
2023-01-07T13:21:00.254Z,34.10
2023-01-07T13:24:00.555Z,37.60
2023-01-07T13:26:52.386Z,37.50
2023-01-07T13:29:42.021Z,39.70
2023-01-07T13:32:20.111Z,40.30
2023-01-07T13:35:14.181Z,39.80
2023-01-07T13:37:51.449Z,40.90
2023-01-07T13:40:40.643Z,40.40
2023-01-07T13:43:31.360Z,42.20
2023-01-07T13:46:07.813Z,39.10
2023-01-07T13:48:38.378Z,40.60
2023-01-07T13:51:07.649Z,41.00
2023-01-07T13:53:44.352Z,41.60
2023-01-07T13:56:18.282Z,40.70
2023-01-07T13:58:46.668Z,41.70
2023-01-07T14:01:18.379Z,42.40
2023-01-07T14:03:55.079Z,42.80
2023-01-07T14:06:23.890Z,43.40
2023-01-07T14:09:05.016Z,49.70
2023-01-07T14:11:32.645Z,46.80
2023-01-07T14:14:03.413Z,44.70
2023-01-07T14:16:32.937Z,46.00
2023-01-07T14:19:03.423Z,46.30
2023-01-07T14:21:43.895Z,47.50
2023-01-07T14:24:22.106Z,50.40
2023-01-07T14:26:52.839Z,54.70
2023-01-07T14:29:42.087Z,54.60
2023-01-07T14:32:28.162Z,49.40
2023-01-07T14:35:06.293Z,54.90
2023-01-07T14:37:46.910Z,54.50
2023-01-07T14:40:26.909Z,59.60
2023-01-07T14:43:15.356Z,49.90
2023-01-07T14:45:46.173Z,53.50
2023-01-07T14:48:16.619Z,66.00
2023-01-07T14:50:53.881Z,54.70
2023-01-07T14:53:27.733Z,53.30
2023-01-07T14:56:07.137Z,51.90
2023-01-07T14:59:16.176Z,52.20
2023-01-07T15:01:53.291Z,55.00
2023-01-07T15:05:00.405Z,53.70
2023-01-07T15:07:32.821Z,53.00
2023-01-07T15:10:22.181Z,52.90
2023-01-07T15:13:12.619Z,53.30
2023-01-07T15:16:00.061Z,60.70
2023-01-07T15:18:32.810Z,55.30
2023-01-07T15:21:19.219Z,57.30
2023-01-07T15:24:25.677Z,54.20
2023-01-07T15:27:01.929Z,61.80
2023-01-07T15:29:48.721Z,55.10
2023-01-07T15:32:31.743Z,57.70
2023-01-07T15:34:59.556Z,58.70
2023-01-07T15:37:27.287Z,58.40
2023-01-07T15:39:56.515Z,63.50
2023-01-07T15:42:27.268Z,61.20
2023-01-07T15:44:56.847Z,60.90
2023-01-07T15:47:40.920Z,64.60
2023-01-07T15:50:31.894Z,65.60
2023-01-07T15:53:02.149Z,65.30
2023-01-07T15:55:29.880Z,66.50
2023-01-07T15:58:04.892Z,65.60
2023-01-07T16:00:34.745Z,73.10
2023-01-07T16:03:03.171Z,69.50
2023-01-07T16:05:31.029Z,70.80
2023-01-07T16:08:00.365Z,80.80
2023-01-07T16:10:30.158Z,79.40
2023-01-07T16:13:01.296Z,78.50
2023-01-07T16:15:31.536Z,76.80
2023-01-07T16:18:02.106Z,79.10
2023-01-07T16:20:40.594Z,82.00
2023-01-07T16:23:08.404Z,83.30
2023-01-07T16:25:43.524Z,83.40
2023-01-07T16:28:22.793Z,99.80
2023-01-07T16:30:51.217Z,89.90
2023-01-07T16:33:21.720Z,88.20
2023-01-07T16:35:50.778Z,82.50
2023-01-07T16:38:19.744Z,87.20
2023-01-07T16:40:48.066Z,80.10
2023-01-07T16:43:40.243Z,80.30
2023-01-07T16:46:28.805Z,79.10
2023-01-07T16:49:29.924Z,79.00
2023-01-07T16:52:05.184Z,77.30
2023-01-07T16:54:37.073Z,82.50
2023-01-07T16:57:06.259Z,77.50
2023-01-07T16:59:36.045Z,85.90
2023-01-07T17:02:29.972Z,74.80
2023-01-07T17:05:12.446Z,90.90
2023-01-07T17:07:40.693Z,91.10
2023-01-07T17:10:19.107Z,89.40
2023-01-07T17:12:56.713Z,95.80
2023-01-07T17:15:34.108Z,100.80
2023-01-07T17:18:26.180Z,106.10
2023-01-07T17:20:57.364Z,98.70
2023-01-07T17:23:25.042Z,104.40
2023-01-07T17:26:02.214Z,103.40
2023-01-07T17:28:33.088Z,99.10
2023-01-07T17:31:00.941Z,104.10
2023-01-07T17:33:28.738Z,102.50
2023-01-07T17:35:59.309Z,107.20
2023-01-07T17:38:28.952Z,114.70
2023-01-07T17:40:56.732Z,119.00
2023-01-07T17:43:35.161Z,114.60
2023-01-07T17:46:08.817Z,115.80
2023-01-07T17:48:36.666Z,114.00
2023-01-07T17:51:05.697Z,109.50
2023-01-07T17:53:37.579Z,104.50
2023-01-07T17:56:05.730Z,112.00
2023-01-07T17:58:35.357Z,109.70
2023-01-07T18:01:08.279Z,113.30
2023-01-07T18:03:36.854Z,111.60
2023-01-07T18:06:14.007Z,108.30
2023-01-07T18:08:41.671Z,102.40
2023-01-07T18:11:31.769Z,111.10
2023-01-07T18:13:59.452Z,110.10
2023-01-07T18:16:27.814Z,112.50
2023-01-07T18:18:56.584Z,123.60
2023-01-07T18:21:24.605Z,118.00
2023-01-07T18:23:52.307Z,110.10
2023-01-07T18:26:20.235Z,103.70
2023-01-07T18:28:48.661Z,105.50
2023-01-07T18:31:16.572Z,105.40
2023-01-07T18:33:44.298Z,105.70
2023-01-07T18:36:12.114Z,118.80
2023-01-07T18:38:40.012Z,108.50
2023-01-07T18:41:07.813Z,114.80
2023-01-07T18:43:35.423Z,128.40
2023-01-07T18:46:07.769Z,129.10
2023-01-07T18:48:36.557Z,131.90
2023-01-07T18:51:09.449Z,134.20
2023-01-07T18:53:38.241Z,138.80
2023-01-07T18:56:11.836Z,147.10
2023-01-07T18:58:40.636Z,141.90
2023-01-07T19:01:09.466Z,135.50
2023-01-07T19:03:37.564Z,140.50
2023-01-07T19:06:10.317Z,128.90
2023-01-07T19:08:38.564Z,139.90
2023-01-07T19:11:07.973Z,136.50
2023-01-07T19:13:35.979Z,147.80
2023-01-07T19:16:12.117Z,153.80
2023-01-07T19:18:40.220Z,155.80
2023-01-07T19:21:10.657Z,149.90
2023-01-07T19:23:39.730Z,150.90
2023-01-07T19:26:09.069Z,158.00
2023-01-07T19:28:36.778Z,151.50
2023-01-07T19:31:06.629Z,147.90
2023-01-07T19:33:34.659Z,153.60
2023-01-07T19:36:09.234Z,153.40
2023-01-07T19:38:45.009Z,143.70
2023-01-07T19:41:15.522Z,141.80
2023-01-07T19:43:45.596Z,146.00
2023-01-07T19:46:15.195Z,136.20
2023-01-07T19:48:43.027Z,142.40
2023-01-07T19:51:10.884Z,134.80
2023-01-07T19:53:39.104Z,139.20
2023-01-07T19:56:12.022Z,135.80
2023-01-07T19:58:40.149Z,136.30
2023-01-07T20:01:10.799Z,131.80
2023-01-07T20:03:39.476Z,125.90
2023-01-07T20:06:13.116Z,124.60
2023-01-07T20:08:41.421Z,120.70
2023-01-07T20:11:09.583Z,117.70
2023-01-07T20:13:38.723Z,119.50
2023-01-07T20:16:24.030Z,117.10
2023-01-07T20:18:53.905Z,109.80
2023-01-07T20:21:25.347Z,116.60
2023-01-07T20:23:53.643Z,117.40
2023-01-07T20:26:32.498Z,124.20
2023-01-07T20:29:00.853Z,134.50
2023-01-07T20:31:30.046Z,132.70
2023-01-07T20:33:58.784Z,131.40
2023-01-07T20:36:29.522Z,140.20
2023-01-07T20:38:57.499Z,148.10
2023-01-07T20:41:27.321Z,163.80
2023-01-07T20:43:57.487Z,167.90
2023-01-07T20:46:26.773Z,179.20
2023-01-07T20:48:55.525Z,177.80
2023-01-07T20:51:23.591Z,169.80
2023-01-07T20:53:51.683Z,178.30
2023-01-07T20:56:21.062Z,191.60
2023-01-07T20:58:50.023Z,193.70
2023-01-07T21:01:20.252Z,191.60
2023-01-07T21:03:48.729Z,188.30
2023-01-07T21:06:18.105Z,185.50
2023-01-07T21:08:47.023Z,178.50
2023-01-07T21:11:17.702Z,176.40
2023-01-07T21:13:46.409Z,169.50
2023-01-07T21:16:14.437Z,173.10
2023-01-07T21:18:42.521Z,159.80
2023-01-07T21:21:13.054Z,150.40
2023-01-07T21:23:41.061Z,158.20
2023-01-07T21:26:09.355Z,135.10
2023-01-07T21:28:37.014Z,148.40
2023-01-07T21:31:08.646Z,136.40
2023-01-07T21:33:37.829Z,137.10
2023-01-07T21:36:14.411Z,140.50
2023-01-07T21:38:42.863Z,139.20
2023-01-07T21:41:15.479Z,128.80
2023-01-07T21:43:43.975Z,131.20
2023-01-07T21:46:12.278Z,133.70
2023-01-07T21:48:41.991Z,141.60
2023-01-07T21:51:16.733Z,128.20
2023-01-07T21:53:44.556Z,141.70
2023-01-07T21:56:14.952Z,126.10
2023-01-07T21:58:44.144Z,129.50
2023-01-07T22:01:12.357Z,139.10
2023-01-07T22:03:40.191Z,139.40
2023-01-07T22:06:12.710Z,122.80
2023-01-07T22:08:40.340Z,140.50
2023-01-07T22:11:12.473Z,134.30
2023-01-07T22:13:40.251Z,146.50
2023-01-07T22:16:08.599Z,149.60
2023-01-07T22:18:36.385Z,150.70
2023-01-07T22:21:04.139Z,144.60
2023-01-07T22:23:31.818Z,144.90
2023-01-07T22:26:04.947Z,154.10
2023-01-07T22:28:35.207Z,144.00
2023-01-07T22:31:08.683Z,137.60
2023-01-07T22:33:36.313Z,139.50
2023-01-07T22:36:04.455Z,132.20
2023-01-07T22:38:32.665Z,130.70
2023-01-07T22:41:02.257Z,126.80
2023-01-07T22:43:30.255Z,134.10
2023-01-07T22:46:01.991Z,140.40
2023-01-07T22:48:32.475Z,150.00
2023-01-07T22:51:05.082Z,168.90
2023-01-07T22:53:33.063Z,137.40
2023-01-07T22:56:00.924Z,154.10
2023-01-07T22:58:28.735Z,159.00
2023-01-07T23:00:57.023Z,171.70
2023-01-07T23:03:25.526Z,174.80
2023-01-07T23:05:53.238Z,180.00
2023-01-07T23:08:20.907Z,170.20
2023-01-07T23:10:48.738Z,167.60
2023-01-07T23:13:16.441Z,174.60
2023-01-07T23:15:44.089Z,176.60
2023-01-07T23:18:12.314Z,169.50
2023-01-07T23:20:41.485Z,161.10
2023-01-07T23:23:10.406Z,164.30
2023-01-07T23:25:44.816Z,168.30
2023-01-07T23:28:12.571Z,168.50
2023-01-07T23:30:40.517Z,151.90
2023-01-07T23:33:08.356Z,158.80
2023-01-07T23:35:36.673Z,159.30
2023-01-07T23:38:04.394Z,168.80
2023-01-07T23:40:36.240Z,158.30
2023-01-07T23:43:03.969Z,160.20
2023-01-07T23:45:31.666Z,152.00
2023-01-07T23:47:59.453Z,145.10
2023-01-07T23:50:27.416Z,139.60
2023-01-07T23:52:55.051Z,143.40
2023-01-07T23:55:22.683Z,140.30
2023-01-07T23:57:50.328Z,136.50
